Time;durP1;ratioP1;P1;durP2;ratioP2;P2;SDS_P1;SDS_P2;PMS_P1;PMS_P2;Temp;Humidity;BMP_temperature;BMP_pressure;BME280_temperature;BME280_humidity;BME280_pressure;Samples;Min_cycle;Max_cycle;Signal;HPM_P1;HPM_P2
2022/04/03 00:00:32;;;;;;;19.58;9.93;;;;;;;3.21;65.65;100103.72;5040627;28;20098;-83
2022/04/03 00:03:01;;;;;;;23.90;9.60;;;;;;;3.19;65.25;100097.69;5041868;28;20070;-83
2022/04/03 00:05:28;;;;;;;21.52;9.60;;;;;;;3.18;65.50;100101.28;5029101;28;20127;-83
2022/04/03 00:07:55;;;;;;;23.20;9.45;;;;;;;3.17;65.27;100104.81;5040355;28;21237;-84
2022/04/03 00:10:22;;;;;;;22.60;8.95;;;;;;;3.17;65.52;100106.59;5012526;28;20083;-83
2022/04/03 00:12:50;;;;;;;20.95;9.10;;;;;;;3.15;65.45;100114.53;5004642;28;20045;-83
2022/04/03 00:15:18;;;;;;;22.17;9.82;;;;;;;3.14;65.43;100107.59;5034260;28;20057;-83
2022/04/03 00:17:45;;;;;;;20.35;9.80;;;;;;;3.12;65.64;100112.06;5036439;28;20336;-83
2022/04/03 00:20:13;;;;;;;22.25;9.68;;;;;;;3.12;65.49;100112.06;5034792;28;20047;-83
2022/04/03 00:22:40;;;;;;;20.55;9.80;;;;;;;3.11;65.72;100112.19;5034048;28;20647;-83
2022/04/03 00:25:08;;;;;;;20.95;9.73;;;;;;;3.10;65.43;100113.94;5034060;28;20041;-83
2022/04/03 00:27:34;;;;;;;27.58;10.13;;;;;;;3.07;65.67;100111.47;5032701;28;20041;-83
2022/04/03 00:30:01;;;;;;;21.77;9.30;;;;;;;3.08;65.59;100113.19;5026725;28;20079;-82
2022/04/03 00:32:28;;;;;;;18.60;9.18;;;;;;;3.07;65.70;100110.63;5022256;28;20132;-83
2022/04/03 00:34:56;;;;;;;24.40;10.32;;;;;;;3.06;65.87;100120.28;5054568;28;20430;-83
2022/04/03 00:37:22;;;;;;;21.10;9.10;;;;;;;3.06;65.66;100119.44;5029545;28;20053;-82
2022/04/03 00:39:49;;;;;;;19.45;9.50;;;;;;;3.03;65.71;100112.59;5024983;28;22033;-83
2022/04/03 00:42:16;;;;;;;27.48;9.48;;;;;;;3.03;65.68;100115.22;5035072;28;20055;-83
2022/04/03 00:44:43;;;;;;;22.05;10.13;;;;;;;3.02;65.95;100116.13;5038490;28;20044;-83
2022/04/03 00:47:11;;;;;;;20.77;9.75;;;;;;;3.01;66.03;100115.28;5052446;28;20037;-83
2022/04/03 00:49:38;;;;;;;21.65;9.82;;;;;;;3.01;65.68;100115.28;5023102;28;20045;-83
2022/04/03 00:52:05;;;;;;;19.70;8.93;;;;;;;3.01;65.81;100114.44;5036452;28;20040;-79
2022/04/03 00:54:32;;;;;;;30.27;10.43;;;;;;;3.01;66.22;100115.28;5028085;28;20079;-80
2022/04/03 00:56:59;;;;;;;22.00;8.98;;;;;;;2.99;66.17;100121.53;5020725;28;20051;-79
2022/04/03 00:59:27;;;;;;;22.27;10.35;;;;;;;3.00;66.00;100117.97;5023184;28;20492;-79
2022/04/03 01:01:53;;;;;;;21.83;10.57;;;;;;;2.98;65.78;100125.94;4993132;28;20056;-80
2022/04/03 01:04:20;;;;;;;24.80;10.77;;;;;;;2.99;66.01;100125.00;5014311;28;20052;-79
2022/04/03 01:06:47;;;;;;;29.42;10.18;;;;;;;3.01;66.13;100132.78;5023282;28;20051;-79
2022/04/03 01:09:14;;;;;;;19.60;9.27;;;;;;;2.99;66.38;100125.00;5041350;28;20052;-79
2022/04/03 01:11:41;;;;;;;18.75;9.55;;;;;;;2.99;66.20;100129.41;5037914;28;20045;-79
2022/04/03 01:14:07;;;;;;;23.42;9.77;;;;;;;3.00;65.96;100131.97;5029929;28;20051;-79
2022/04/03 01:16:35;;;;;;;25.30;11.70;;;;;;;2.98;66.04;100139.06;5037550;28;20482;-79
2022/04/03 01:19:04;;;;;;;20.55;9.05;;;;;;;2.98;66.24;100130.34;5014328;28;20048;-79
2022/04/03 01:21:30;;;;;;;24.05;8.98;;;;;;;2.97;66.47;100129.47;5035142;28;20500;-79
2022/04/03 01:23:58;;;;;;;23.58;11.95;;;;;;;2.97;66.24;100136.50;5036751;28;20048;-80
2022/04/03 01:26:25;;;;;;;29.30;11.05;;;;;;;2.95;66.45;100135.72;5033728;28;20131;-79
2022/04/03 01:28:52;;;;;;;30.65;12.23;;;;;;;2.94;66.55;100129.63;5010136;28;20133;-79
2022/04/03 01:31:20;;;;;;;26.23;11.48;;;;;;;2.95;66.66;100126.09;5009292;28;20075;-79
2022/04/03 01:33:46;;;;;;;25.00;10.95;;;;;;;2.97;66.94;100134.72;5029640;28;20599;-82
2022/04/03 01:36:13;;;;;;;27.98;12.43;;;;;;;2.97;66.74;100133.88;5031110;28;20037;-83
2022/04/03 01:38:40;;;;;;;27.55;11.50;;;;;;;2.98;66.53;100130.34;5044691;28;20040;-83
2022/04/03 01:41:08;;;;;;;26.10;9.98;;;;;;;2.97;66.65;100133.88;5024135;28;20047;-82
2022/04/03 01:43:34;;;;;;;30.58;10.18;;;;;;;2.97;66.91;100139.97;5025707;28;20098;-83
2022/04/03 01:46:01;;;;;;;28.90;12.18;;;;;;;2.97;66.96;100144.38;5044734;28;20098;-82
2022/04/03 01:48:28;;;;;;;25.52;11.45;;;;;;;2.97;66.73;100132.09;5048250;28;20052;-83
2022/04/03 01:50:55;;;;;;;22.52;11.73;;;;;;;2.97;66.47;100136.50;4996500;28;20044;-83
2022/04/03 01:53:22;;;;;;;26.58;9.90;;;;;;;2.97;66.90;100133.88;5057672;28;20392;-82
2022/04/03 01:56:07;;;;;;;22.20;10.23;;;;;;;2.91;67.11;100134.22;5038572;28;20048;-83
2022/04/03 01:58:34;;;;;;;26.83;10.60;;;;;;;2.96;66.78;100132.19;4991113;28;20055;-83
2022/04/03 02:01:04;;;;;;;23.92;10.85;;;;;;;2.96;66.91;100135.66;5037666;28;20487;-82
2022/04/03 02:03:31;;;;;;;24.60;11.13;;;;;;;2.96;66.74;100132.19;5041274;28;20072;-83
2022/04/03 02:05:57;;;;;;;31.15;11.05;;;;;;;2.96;67.16;100132.19;5020378;28;20048;-83
2022/04/03 02:08:25;;;;;;;31.50;12.48;;;;;;;2.96;67.17;100142.69;5027583;28;20037;-83
2022/04/03 02:10:56;;;;;;;22.88;10.02;;;;;;;2.94;67.05;100139.28;5035066;28;20403;-83
2022/04/03 02:13:22;;;;;;;22.67;10.70;;;;;;;2.93;67.30;100137.59;5024319;28;20404;-83
2022/04/03 02:15:49;;;;;;;24.90;11.13;;;;;;;2.96;67.24;100145.31;5017804;28;20049;-82
2022/04/03 02:18:17;;;;;;;24.42;9.30;;;;;;;2.95;67.21;100146.22;5037814;28;20041;-83
2022/04/03 02:20:44;;;;;;;27.55;10.85;;;;;;;2.95;67.09;100146.22;5027231;28;20044;-83
2022/04/03 02:23:11;;;;;;;28.60;10.65;;;;;;;2.95;67.38;100147.09;5028793;28;20048;-82
2022/04/03 02:25:38;;;;;;;22.98;9.35;;;;;;;2.94;67.16;100145.38;5036560;28;20044;-83
2022/04/03 02:28:05;;;;;;;27.13;11.00;;;;;;;2.95;67.28;100147.09;5054193;28;20775;-82
2022/04/03 02:30:32;;;;;;;33.20;13.20;;;;;;;2.94;67.46;100144.53;5032388;28;20068;-83
2022/04/03 02:32:58;;;;;;;24.63;11.65;;;;;;;2.94;67.40;100147.16;5046968;28;20116;-83
2022/04/03 02:35:25;;;;;;;24.98;10.68;;;;;;;2.93;67.31;100148.94;5009693;28;20522;-82
2022/04/03 02:37:53;;;;;;;29.73;10.02;;;;;;;2.93;67.58;100151.56;5034470;28;20040;-82
2022/04/03 02:40:19;;;;;;;20.35;9.38;;;;;;;2.93;67.27;100148.09;5033113;28;20454;-83
2022/04/03 02:42:46;;;;;;;20.45;8.63;;;;;;;2.93;67.48;100154.19;5027598;28;20040;-82
2022/04/03 02:45:15;;;;;;;21.25;8.30;;;;;;;2.93;67.20;100148.09;5037133;28;20098;-83
2022/04/03 02:47:49;;;;;;;25.92;9.40;;;;;;;2.89;67.43;100157.88;5008859;28;20128;-82
2022/04/03 02:50:17;;;;;;;23.75;8.90;;;;;;;2.92;67.20;100157.72;5019051;28;20127;-83
2022/04/03 02:52:44;;;;;;;20.48;8.93;;;;;;;2.91;67.38;100153.41;5012250;28;20044;-83
2022/04/03 02:55:11;;;;;;;24.23;8.73;;;;;;;2.90;67.08;100156.09;5033203;28;20045;-83
2022/04/03 02:57:37;;;;;;;26.23;9.35;;;;;;;2.91;67.31;100157.81;5044859;28;20092;-83
2022/04/03 03:00:06;;;;;;;20.13;8.35;;;;;;;2.91;67.25;100157.81;5026266;28;20479;-83
2022/04/03 03:02:32;;;;;;;30.00;9.90;;;;;;;2.90;67.22;100154.34;5030780;28;20481;-82
2022/04/03 03:04:59;;;;;;;19.33;9.07;;;;;;;2.91;67.13;100163.06;5023449;28;20058;-83
2022/04/03 03:07:38;;;;;;;22.48;9.13;;;;;;;2.87;67.13;100159.72;5042536;28;20040;-82
2022/04/03 03:10:33;;;;;;;18.92;7.45;;;;;;;2.83;66.42;100160.81;5026861;28;20044;-82
2022/04/03 03:13:00;;;;;;;18.42;8.32;;;;;;;2.89;66.39;100157.03;4958076;28;20127;-83
2022/04/03 03:15:28;;;;;;;23.92;8.55;;;;;;;2.89;66.59;100160.50;5009921;28;20469;-83
2022/04/03 03:17:55;;;;;;;22.80;9.05;;;;;;;2.88;66.69;100160.59;4995890;28;20041;-83
2022/04/03 03:20:22;;;;;;;20.48;10.05;;;;;;;2.88;66.69;100165.84;4999797;28;20046;-83
2022/04/03 03:22:48;;;;;;;29.70;13.07;;;;;;;2.87;67.05;100166.75;4989167;28;20111;-83
2022/04/03 03:25:15;;;;;;;25.92;10.98;;;;;;;2.87;67.15;100169.38;4967412;28;20721;-83
2022/04/03 03:27:43;;;;;;;16.75;7.30;;;;;;;2.88;66.86;100168.47;4966419;28;20054;-82
2022/04/03 03:30:11;;;;;;;32.47;10.70;;;;;;;2.86;66.83;100171.16;4971713;28;20517;-83
2022/04/03 03:32:38;;;;;;;19.55;8.05;;;;;;;2.87;66.36;100172.84;4952146;28;20465;-83
2022/04/03 03:35:05;;;;;;;19.85;7.90;;;;;;;2.88;66.20;100178.97;4971584;28;20552;-83
2022/04/03 03:37:33;;;;;;;16.83;7.35;;;;;;;2.85;66.22;100172.09;4963590;28;20066;-82
2022/04/03 03:40:00;;;;;;;24.23;9.77;;;;;;;2.85;66.26;100173.84;4992459;28;20042;-83
2022/04/03 03:42:27;;;;;;;24.73;10.68;;;;;;;2.85;66.37;100173.84;4991838;28;20162;-82
2022/04/03 03:44:53;;;;;;;24.67;8.45;;;;;;;2.84;66.86;100178.25;5040286;28;20045;-83
2022/04/03 03:47:20;;;;;;;25.77;9.85;;;;;;;2.84;67.07;100178.25;5056848;28;20037;-83
2022/04/03 03:49:47;;;;;;;25.92;10.50;;;;;;;2.83;67.33;100171.31;5004317;28;20068;-82
2022/04/03 03:52:40;;;;;;;20.95;8.88;;;;;;;2.78;67.39;100178.56;5050923;28;20036;-83
2022/04/03 03:55:07;;;;;;;25.17;9.82;;;;;;;2.84;67.26;100178.25;4960998;28;20053;-83
2022/04/03 03:57:34;;;;;;;24.20;9.15;;;;;;;2.83;67.21;100185.28;5017104;28;20135;-83
2022/04/03 04:00:01;;;;;;;25.27;8.75;;;;;;;2.84;67.19;100178.25;5043692;28;20124;-83
2022/04/03 04:02:41;;;;;;;21.45;9.45;;;;;;;2.81;67.20;100183.66;5010776;28;20161;-82
2022/04/03 04:05:09;;;;;;;25.55;10.90;;;;;;;2.82;67.31;100186.22;5041591;28;20107;-82
2022/04/03 04:07:45;;;;;;;19.33;9.20;;;;;;;2.81;67.62;100186.28;5022785;28;20098;-83
2022/04/03 04:10:13;;;;;;;20.67;8.60;;;;;;;2.82;67.35;100188.84;5005001;28;20055;-83
2022/04/03 04:12:41;;;;;;;22.42;7.85;;;;;;;2.82;67.06;100199.31;5021669;28;20041;-83
2022/04/03 04:16:02;;;;;;;14.57;6.53;;;;;;;2.75;67.24;100197.09;5052238;28;20045;-82
2022/04/03 04:18:30;;;;;;;15.18;6.45;;;;;;;2.81;66.97;100196.75;4989161;28;20051;-83
2022/04/03 04:20:57;;;;;;;15.40;7.53;;;;;;;2.81;66.96;100199.38;5014129;28;20043;-83
2022/04/03 04:23:23;;;;;;;15.85;7.20;;;;;;;2.81;66.96;100202.00;5039990;28;20464;-82
2022/04/03 04:25:50;;;;;;;17.63;7.30;;;;;;;2.81;66.66;100197.59;5029085;28;20049;-83
2022/04/03 04:28:17;;;;;;;12.65;5.20;;;;;;;2.79;66.56;100198.63;5042030;28;20036;-84
2022/04/03 04:30:44;;;;;;;18.08;6.15;;;;;;;2.81;66.48;100205.47;5034981;28;20094;-83
2022/04/03 04:33:11;;;;;;;15.50;6.03;;;;;;;2.79;66.16;100199.47;5039450;28;20043;-83
2022/04/03 04:35:38;;;;;;;14.52;5.88;;;;;;;2.79;66.13;100204.69;5040406;28;20052;-83
2022/04/03 04:38:04;;;;;;;13.00;6.43;;;;;;;2.80;65.91;100213.44;5024430;28;20094;-83
2022/04/03 04:40:31;;;;;;;15.88;6.35;;;;;;;2.77;65.74;100219.69;5019425;28;20396;-83
2022/04/03 04:42:58;;;;;;;10.45;5.95;;;;;;;2.77;65.55;100217.06;5007398;28;20045;-83
2022/04/03 04:45:25;;;;;;;15.57;6.07;;;;;;;2.77;65.58;100226.69;5015724;28;20119;-83
2022/04/03 04:47:59;;;;;;;18.05;6.68;;;;;;;2.77;65.38;100229.31;5047174;28;20049;-83
2022/04/03 04:50:27;;;;;;;17.80;6.20;;;;;;;2.76;65.59;100222.38;4993237;28;20473;-82
2022/04/03 04:52:55;;;;;;;16.40;6.35;;;;;;;2.75;65.32;100224.16;5017274;28;20350;-83
2022/04/03 04:55:22;;;;;;;12.57;6.57;;;;;;;2.74;65.27;100232.94;5030224;28;20497;-85
2022/04/03 04:57:53;;;;;;;16.67;6.18;;;;;;;2.71;64.48;100232.25;5018014;28;20071;-86
2022/04/03 05:00:22;;;;;;;19.55;8.60;;;;;;;2.69;64.92;100237.56;5024910;28;20041;-86
2022/04/03 05:02:49;;;;;;;16.08;5.90;;;;;;;2.69;64.92;100241.94;5037307;28;20759;-86
2022/04/03 05:05:18;;;;;;;15.52;6.95;;;;;;;2.68;65.05;100235.03;5022360;28;20045;-82
2022/04/03 05:07:45;;;;;;;12.55;5.43;;;;;;;2.67;65.08;100238.56;5040113;28;20048;-79
2022/04/03 05:10:15;;;;;;;14.80;5.82;;;;;;;2.66;65.20;100235.09;5030201;28;20075;-85
2022/04/03 05:12:43;;;;;;;12.48;6.03;;;;;;;2.65;65.47;100236.03;5029442;28;20511;-86
2022/04/03 05:15:11;;;;;;;16.77;5.97;;;;;;;2.67;65.38;100247.28;5039953;28;20048;-85
2022/04/03 05:17:43;;;;;;;14.02;5.65;;;;;;;2.66;65.11;100249.97;5015317;28;20064;-86
2022/04/03 05:20:12;;;;;;;13.75;6.47;;;;;;;2.67;65.08;100251.66;5012712;28;20484;-86
2022/04/03 05:22:39;;;;;;;16.65;6.43;;;;;;;2.66;65.37;100242.94;5037739;28;20045;-84
2022/04/03 05:25:06;;;;;;;12.32;6.07;;;;;;;2.66;65.31;100240.34;5042189;28;20048;-85
2022/04/03 05:27:34;;;;;;;14.18;5.18;;;;;;;2.69;64.80;100244.56;5025454;28;20048;-86
2022/04/03 05:30:03;;;;;;;13.45;5.50;;;;;;;2.67;64.71;100243.78;5040544;28;20495;-87
2022/04/03 05:32:31;;;;;;;14.68;6.53;;;;;;;2.65;64.60;100251.75;5020242;28;20162;-86
2022/04/03 05:34:59;;;;;;;16.73;7.00;;;;;;;2.66;65.19;100255.22;5026408;28;20037;-86
2022/04/03 05:37:27;;;;;;;15.80;7.43;;;;;;;2.64;64.97;100257.06;5020605;28;20550;-86
2022/04/03 05:39:54;;;;;;;18.30;7.82;;;;;;;2.64;65.35;100262.31;5038466;28;20388;-86
2022/04/03 05:42:21;;;;;;;16.27;7.10;;;;;;;2.65;65.38;100264.03;5042270;28;20128;-86
2022/04/03 05:44:49;;;;;;;18.38;7.85;;;;;;;2.66;65.63;100260.47;5009903;28;20124;-86
2022/04/03 05:47:17;;;;;;;19.88;7.97;;;;;;;2.67;65.54;100270.00;5022476;28;20037;-86
2022/04/03 05:49:45;;;;;;;17.23;7.70;;;;;;;2.66;65.73;100271.78;5043698;28;20044;-86
2022/04/03 05:52:12;;;;;;;22.35;7.55;;;;;;;2.67;65.75;100275.25;5024961;28;20045;-86
2022/04/03 05:54:40;;;;;;;18.25;6.03;;;;;;;2.68;65.83;100280.44;5036855;28;20052;-86
2022/04/03 05:57:09;;;;;;;17.50;6.78;;;;;;;2.69;65.34;100276.03;5022357;28;20506;-85
2022/04/03 05:59:36;;;;;;;17.75;6.45;;;;;;;2.70;65.64;100278.59;5046783;28;20049;-85
2022/04/03 06:02:05;;;;;;;13.38;7.65;;;;;;;2.71;65.46;100276.81;5051682;28;20056;-82
2022/04/03 06:04:33;;;;;;;21.75;8.35;;;;;;;2.72;65.33;100276.75;5054254;28;20068;-83
2022/04/03 06:07:00;;;;;;;13.98;6.38;;;;;;;2.72;65.67;100283.75;5033046;28;20057;-83
2022/04/03 06:09:27;;;;;;;21.35;7.22;;;;;;;2.72;65.98;100282.00;5021249;28;20484;-83
2022/04/03 06:11:53;;;;;;;15.30;7.65;;;;;;;2.74;65.64;100289.78;5047610;28;20044;-82
2022/04/03 06:14:21;;;;;;;17.55;7.80;;;;;;;2.76;65.76;100285.31;5035157;28;20052;-83
2022/04/03 06:16:48;;;;;;;16.52;8.05;;;;;;;2.78;65.96;100286.09;5023568;28;20037;-78
2022/04/03 06:19:15;;;;;;;23.25;8.32;;;;;;;2.79;65.97;100288.63;5036959;28;20044;-78
2022/04/03 06:21:42;;;;;;;22.40;8.10;;;;;;;2.80;65.59;100292.13;5033104;28;20041;-77
2022/04/03 06:24:09;;;;;;;14.13;6.07;;;;;;;2.73;65.62;100290.72;5020529;28;20070;-78
2022/04/03 06:26:35;;;;;;;15.70;6.80;;;;;;;2.77;65.44;100300.97;5038920;28;20051;-78
2022/04/03 06:29:02;;;;;;;16.48;6.70;;;;;;;2.78;65.48;100299.19;5021082;28;20053;-78
2022/04/03 06:31:29;;;;;;;16.58;6.63;;;;;;;2.78;65.43;100300.03;5038960;28;20101;-79
2022/04/03 06:33:56;;;;;;;17.50;6.75;;;;;;;2.80;65.48;100310.47;5022514;28;20055;-77
2022/04/03 06:36:22;;;;;;;19.63;8.57;;;;;;;2.83;65.08;100307.69;5035345;28;20040;-77
2022/04/03 06:38:50;;;;;;;15.73;6.97;;;;;;;2.81;65.26;100314.78;5028745;28;20045;-77
2022/04/03 06:41:17;;;;;;;16.60;7.00;;;;;;;2.82;65.15;100308.59;5014175;28;20041;-77
2022/04/03 06:43:44;;;;;;;19.02;7.47;;;;;;;2.85;65.23;100315.47;5005105;28;20044;-78
2022/04/03 06:46:11;;;;;;;16.40;7.85;;;;;;;2.83;65.16;100319.03;5027667;28;20060;-82
2022/04/03 06:48:38;;;;;;;12.70;6.32;;;;;;;2.81;65.10;100318.25;5022563;28;20048;-77
2022/04/03 06:51:04;;;;;;;13.10;6.45;;;;;;;2.84;65.16;100322.50;5007224;28;20385;-77
2022/04/03 06:53:31;;;;;;;16.48;7.97;;;;;;;2.85;64.77;100321.59;5026033;28;20037;-78
2022/04/03 06:55:58;;;;;;;15.52;6.43;;;;;;;2.83;64.63;100321.66;5012328;28;20060;-77
2022/04/03 06:58:25;;;;;;;23.42;6.10;;;;;;;2.86;64.75;100330.31;5035622;28;20045;-78
2022/04/03 07:00:53;;;;;;;17.38;6.85;;;;;;;2.85;64.37;100324.22;5020690;28;20695;-82
2022/04/03 07:03:19;;;;;;;13.68;5.97;;;;;;;2.84;64.08;100333.00;5038458;28;20056;-77
2022/04/03 07:05:46;;;;;;;19.70;7.50;;;;;;;2.84;64.20;100333.00;5009649;28;20447;-77
2022/04/03 07:08:13;;;;;;;13.50;6.70;;;;;;;2.87;64.38;100339.84;5021441;28;20175;-78
2022/04/03 07:10:40;;;;;;;16.55;6.70;;;;;;;2.91;64.46;100341.41;5017065;28;20041;-77
2022/04/03 07:13:07;;;;;;;17.40;6.38;;;;;;;2.91;64.42;100344.03;5036437;28;20048;-88
2022/04/03 07:15:33;;;;;;;18.60;6.32;;;;;;;2.96;64.09;100345.50;5037266;28;20041;-88
2022/04/03 07:18:00;;;;;;;13.63;5.90;;;;;;;2.93;64.24;100344.81;5054886;28;20600;-87
2022/04/03 07:20:27;;;;;;;16.85;6.82;;;;;;;2.85;63.64;100347.81;5010883;28;20053;-87
2022/04/03 07:22:55;;;;;;;17.65;7.50;;;;;;;2.93;64.28;100350.06;5039139;28;20041;-88
2022/04/03 07:25:24;;;;;;;14.25;6.53;;;;;;;2.90;63.70;100352.81;5040742;28;20041;-88
2022/04/03 07:27:51;;;;;;;15.57;6.43;;;;;;;2.86;62.68;100348.66;5050554;28;20049;-88
2022/04/03 07:30:18;;;;;;;15.27;6.18;;;;;;;2.87;63.19;100359.06;5027712;28;20044;-86
2022/04/03 07:32:44;;;;;;;15.40;6.75;;;;;;;2.88;63.34;100352.06;5036859;28;20033;-87
2022/04/03 07:35:12;;;;;;;11.70;6.25;;;;;;;2.92;63.57;100358.84;5041818;28;20495;-87
2022/04/03 07:37:39;;;;;;;13.57;6.13;;;;;;;2.98;62.89;100361.19;5026998;28;20101;-87
2022/04/03 07:40:07;;;;;;;12.73;5.57;;;;;;;2.94;62.77;100360.47;5040425;28;20483;-87
2022/04/03 07:42:35;;;;;;;14.05;6.18;;;;;;;2.87;61.92;100356.44;5034813;28;20044;-87
2022/04/03 07:45:04;;;;;;;10.40;5.15;;;;;;;2.96;62.45;100361.25;5047273;28;20045;-87
2022/04/03 07:47:31;;;;;;;12.90;6.03;;;;;;;3.02;63.10;100368.81;5018091;28;20045;-87
2022/04/03 07:49:59;;;;;;;13.13;5.90;;;;;;;3.06;61.63;100366.06;5039870;28;20072;-87
2022/04/03 07:52:25;;;;;;;12.98;5.88;;;;;;;3.19;61.04;100375.03;5017656;28;20614;-88
2022/04/03 07:54:52;;;;;;;17.25;6.38;;;;;;;3.09;60.43;100371.16;5032522;28;20068;-88
2022/04/03 07:57:19;;;;;;;15.23;5.65;;;;;;;3.15;58.45;100376.94;5008709;28;20384;-88
2022/04/03 07:59:46;;;;;;;13.35;5.90;;;;;;;3.07;59.09;100373.84;5026502;28;20045;-88
2022/04/03 08:02:14;;;;;;;12.02;5.55;;;;;;;3.00;59.79;100370.69;5035031;28;20184;-87
2022/04/03 08:04:41;;;;;;;11.77;6.15;;;;;;;3.05;60.67;100375.69;5047425;28;20041;-88
2022/04/03 08:07:08;;;;;;;12.98;5.22;;;;;;;3.08;60.18;100374.69;5022009;28;20132;-88
2022/04/03 08:09:34;;;;;;;11.32;6.10;;;;;;;3.03;60.18;100381.03;5005899;28;20049;-86
2022/04/03 08:12:02;;;;;;;13.55;5.93;;;;;;;3.08;60.88;100387.81;5026359;28;20044;-88
2022/04/03 08:14:29;;;;;;;13.73;6.63;;;;;;;3.05;60.57;100383.56;5024730;28;20395;-88
2022/04/03 08:16:58;;;;;;;13.75;5.47;;;;;;;3.12;60.47;100390.22;5032348;28;20079;-87
2022/04/03 08:19:25;;;;;;;10.15;5.40;;;;;;;3.15;61.08;100386.59;5015174;28;20116;-87
2022/04/03 08:21:51;;;;;;;12.50;6.13;;;;;;;3.22;61.25;100393.25;5038833;28;20037;-88
2022/04/03 08:24:18;;;;;;;12.50;4.90;;;;;;;3.28;59.11;100395.53;5050408;28;20055;-88
2022/04/03 08:26:46;;;;;;;10.25;5.15;;;;;;;3.20;60.25;100384.59;5028314;28;20037;-88
2022/04/03 08:29:13;;;;;;;10.50;5.38;;;;;;;3.21;59.80;100396.81;5022340;28;20062;-88
2022/04/03 08:31:39;;;;;;;12.70;5.60;;;;;;;3.23;60.02;100397.56;5034997;28;20101;-88
2022/04/03 08:34:06;;;;;;;14.00;6.10;;;;;;;3.22;60.11;100395.88;5034930;28;20045;-87
2022/04/03 08:36:53;;;;;;;11.30;4.97;;;;;;;3.21;60.48;100395.03;5001072;28;20044;-81
2022/04/03 08:39:20;;;;;;;7.47;4.28;;;;;;;3.23;58.47;100393.19;5051901;28;20424;-81
2022/04/03 08:41:46;;;;;;;10.27;5.28;;;;;;;3.25;59.45;100393.94;5047283;28;20048;-82
2022/04/03 08:44:13;;;;;;;14.57;5.10;;;;;;;3.31;58.86;100408.53;5008699;28;20051;-81
2022/04/03 08:46:41;;;;;;;11.43;4.65;;;;;;;3.42;58.27;100405.38;5024776;28;20131;-82
2022/04/03 08:49:08;;;;;;;10.98;4.57;;;;;;;3.46;57.99;100409.53;5035711;28;21577;-81
2022/04/03 08:51:36;;;;;;;16.67;7.30;;;;;;;3.42;56.85;100410.63;5034011;28;20572;-82
2022/04/03 08:54:04;;;;;;;15.77;7.97;;;;;;;3.52;54.17;100418.91;5028975;28;20416;-81
2022/04/03 08:56:31;;;;;;;13.27;4.97;;;;;;;3.20;55.22;100403.81;5020006;28;20045;-81
2022/04/03 08:58:58;;;;;;;10.38;4.18;;;;;;;3.17;55.86;100409.19;5005051;28;20041;-81
2022/04/03 09:01:25;;;;;;;11.00;4.72;;;;;;;3.07;54.98;100412.34;5034610;28;20048;-81
2022/04/03 09:03:51;;;;;;;6.20;3.72;;;;;;;3.01;53.95;100414.34;5041081;28;20033;-82
2022/04/03 09:06:21;;;;;;;9.70;4.25;;;;;;;3.06;53.89;100418.53;5038516;28;20122;-81
2022/04/03 09:08:51;;;;;;;9.55;4.38;;;;;;;3.03;54.99;100411.66;5041763;28;20092;-81
2022/04/03 09:11:19;;;;;;;11.55;4.28;;;;;;;3.19;55.70;100407.34;5046586;28;20044;-82
2022/04/03 09:13:46;;;;;;;8.68;4.82;;;;;;;3.24;54.95;100410.59;5025049;28;20045;-81
2022/04/03 09:16:13;;;;;;;9.25;4.13;;;;;;;3.27;53.23;100417.47;5026197;28;20047;-81
2022/04/03 09:18:51;;;;;;;8.32;3.67;;;;;;;3.25;52.20;100417.53;5054359;28;20056;-81
2022/04/03 09:21:20;;;;;;;8.00;3.83;;;;;;;3.11;52.00;100424.41;5019854;28;20123;-81
2022/04/03 09:24:11;;;;;;;8.77;3.22;;;;;;;3.26;51.68;100415.78;5043137;28;20491;-82
2022/04/03 09:26:43;;;;;;;19.33;4.78;;;;;;;3.33;52.44;100418.94;4993955;28;20131;-82
2022/04/03 09:29:16;;;;;;;8.30;3.47;;;;;;;3.14;51.74;100427.72;5045199;28;20048;-81
2022/04/03 09:31:46;;;;;;;9.65;3.75;;;;;;;3.16;52.05;100425.88;5030678;28;20081;-81
2022/04/03 09:34:18;;;;;;;6.85;3.78;;;;;;;3.12;53.49;100426.09;5021608;28;20056;-81
2022/04/03 09:36:57;;;;;;;10.40;3.88;;;;;;;2.94;51.48;100431.28;5036644;28;20400;-82
2022/04/03 09:39:26;;;;;;;7.75;3.45;;;;;;;3.07;53.07;100434.19;4985946;28;20037;-81
2022/04/03 09:41:59;;;;;;;11.20;4.05;;;;;;;3.06;51.58;100429.03;5032036;28;20084;-81
2022/04/03 09:44:29;;;;;;;9.40;3.90;;;;;;;3.09;51.16;100436.75;5037482;28;20488;-81
2022/04/03 09:47:26;;;;;;;10.15;3.90;;;;;;;3.07;52.51;100436.81;5059018;28;20045;-82
2022/04/03 09:49:58;;;;;;;9.13;3.67;;;;;;;3.11;53.20;100433.13;5042911;28;20044;-81
2022/04/03 09:52:38;;;;;;;5.32;3.20;;;;;;;3.17;53.19;100429.34;5037874;28;20475;-81
2022/04/03 09:55:20;;;;;;;8.25;3.67;;;;;;;3.40;52.83;100426.44;4997179;28;20137;-81
2022/04/03 09:58:04;;;;;;;6.45;4.05;;;;;;;3.42;52.88;100427.22;5014077;28;20546;-81
2022/04/03 10:00:47;;;;;;;8.10;3.53;;;;;;;3.53;53.72;100420.59;4978541;28;20040;-81
2022/04/03 10:03:14;;;;;;;5.32;3.08;;;;;;;3.51;53.59;100425.94;5039274;28;20037;-81
2022/04/03 10:05:42;;;;;;;9.38;3.78;;;;;;;3.57;53.89;100414.28;5033704;28;20463;-81
2022/04/03 10:08:10;;;;;;;8.60;3.92;;;;;;;3.63;53.59;100417.44;5038028;28;20059;-79
2022/04/03 10:10:38;;;;;;;10.88;3.65;;;;;;;3.70;53.44;100423.22;5003819;28;20472;-78
2022/04/03 10:13:05;;;;;;;6.80;3.30;;;;;;;3.72;53.26;100410.03;5021681;28;20047;-78
2022/04/03 10:15:32;;;;;;;7.28;3.47;;;;;;;3.70;53.45;100416.19;5022772;28;20052;-78
2022/04/03 10:17:59;;;;;;;5.75;3.00;;;;;;;3.64;53.40;100407.78;5013397;28;20092;-78
2022/04/03 10:20:30;;;;;;;9.52;3.55;;;;;;;3.79;51.72;100414.03;5054645;28;20484;-77
2022/04/03 10:23:04;;;;;;;7.68;3.97;;;;;;;3.72;50.81;100412.66;5031413;28;20056;-78
2022/04/03 10:25:37;;;;;;;8.68;3.40;;;;;;;3.67;51.92;100415.50;4983049;28;20069;-78
2022/04/03 10:28:05;;;;;;;6.63;3.47;;;;;;;3.73;52.99;100411.72;4987244;28;20045;-78
2022/04/03 10:30:43;;;;;;;7.18;3.42;;;;;;;3.76;53.02;100414.19;5023539;28;20563;-88
2022/04/03 10:33:20;;;;;;;7.55;3.28;;;;;;;3.75;51.49;100407.25;5054708;28;20397;-88
2022/04/03 10:36:08;;;;;;;6.63;3.25;;;;;;;3.67;51.71;100407.63;5031361;28;20049;-88
2022/04/03 10:39:08;;;;;;;9.32;3.17;;;;;;;3.68;51.91;100411.94;5017175;28;20041;-88
2022/04/03 10:41:39;;;;;;;7.50;3.63;;;;;;;3.76;51.23;100411.56;4941316;28;20044;-87
2022/04/03 10:44:18;;;;;;;7.45;3.92;;;;;;;3.59;51.22;100415.06;5016761;28;20102;-88
2022/04/03 10:47:03;;;;;;;5.43;2.80;;;;;;;3.54;49.25;100412.66;5019066;28;20670;-88
2022/04/03 10:49:36;;;;;;;6.85;3.20;;;;;;;3.55;49.37;100408.25;5019207;28;20133;-89
2022/04/03 10:52:05;;;;;;;11.57;4.28;;;;;;;3.61;49.44;100413.19;5019716;28;20369;-88
2022/04/03 10:54:48;;;;;;;8.65;3.83;;;;;;;3.67;47.64;100408.47;5024946;28;20133;-88
2022/04/03 10:57:31;;;;;;;;;;;;;;;3.40;48.81;100409.84;5015956;28;20532;-87
2022/04/03 11:00:09;;;;;;;9.63;3.10;;;;;;;3.51;48.08;100411.94;5005360;28;19998;-87
2022/04/03 11:02:39;;;;;;;8.15;4.05;;;;;;;3.69;49.10;100405.78;5052775;28;20090;-87
2022/04/03 11:05:22;;;;;;;4.97;3.08;;;;;;;3.58;50.07;100410.72;5047175;28;20056;-82
2022/04/03 11:07:49;;;;;;;8.90;3.72;;;;;;;3.53;50.59;100408.31;5032827;28;20041;-81
2022/04/03 11:10:54;;;;;;;6.13;3.65;;;;;;;3.50;50.98;100408.47;5031450;28;20040;-81
2022/04/03 11:13:42;;;;;;;7.75;4.18;;;;;;;3.65;49.98;100405.06;5002182;28;20037;-81
2022/04/03 11:16:10;;;;;;;5.13;3.00;;;;;;;3.58;51.24;100408.94;5039252;28;20124;-81
2022/04/03 11:18:41;;;;;;;5.03;3.17;;;;;;;3.62;50.49;100402.59;5052196;28;21494;-81
2022/04/03 11:21:21;;;;;;;10.07;3.63;;;;;;;3.51;49.39;100407.56;5030877;28;20056;-82
2022/04/03 11:24:13;;;;;;;3.58;2.60;;;;;;;3.50;49.50;100403.22;5041137;28;20044;-89
2022/04/03 11:26:44;;;;;;;4.47;2.78;;;;;;;3.54;49.81;100399.53;4957407;28;20489;-89
2022/04/03 11:29:11;;;;;;;7.75;2.97;;;;;;;3.66;49.99;100406.78;5005856;28;20045;-89
2022/04/03 11:31:38;;;;;;;6.68;3.10;;;;;;;3.69;50.60;100403.16;5027098;28;20045;-89
2022/04/03 11:34:06;;;;;;;5.90;2.85;;;;;;;3.74;51.46;100393.28;5026858;28;20510;-89
2022/04/03 11:36:34;;;;;;;6.28;3.08;;;;;;;3.74;52.11;100388.00;5040145;28;20415;-90